SVA3230 OEMA-OEJN
Flight info
| Callsign | SVA3230 |
|---|---|
| Flight time | 0h 38m |
| Altitude | 32000 |
| Route | SISUD B544 RBG/N0455F310 B544 NOMDA |
| Aircraft | A333/H-SDE3GHIJ2J3J5M1RVWXY/LB2D1 |
Departure
| Time | 2026-04-30 11:17 |
|---|---|
| Airport | Prince Mohammad Bin Abdulaziz Airport (OEMA) |
Arrival
| Time | 2026-04-30 11:55 |
|---|---|
| Airport | King Abdulaziz International Airport (OEJN) |
| Time | Latitude | Longitude | Altitude | Speed | Heading |
|---|---|---|---|---|---|
| 2026-04-30 10:50 | 24.55333 | 39.71324 | 2070 ft | 0 kts | 79° |
| 2026-04-30 11:03 | 24.55332 | 39.71320 | 2074 ft | 0 kts | 79° |
| 2026-04-30 11:06 | 24.55332 | 39.71317 | 2074 ft | 3 kts | 78° |
| 2026-04-30 11:06 | 24.55326 | 39.71290 | 2067 ft | 4 kts | 73° |
| 2026-04-30 11:07 | 24.55318 | 39.71264 | 2072 ft | 4 kts | 70° |
| 2026-04-30 11:07 | 24.55311 | 39.71237 | 2073 ft | 4 kts | 83° |
| 2026-04-30 11:07 | 24.55311 | 39.71218 | 2073 ft | 4 kts | 153° |
| 2026-04-30 11:07 | 24.55313 | 39.71216 | 2073 ft | 5 kts | 169° |
| 2026-04-30 11:09 | 24.55309 | 39.71217 | 2069 ft | 3 kts | 169° |
| 2026-04-30 11:09 | 24.55267 | 39.71216 | 2069 ft | 10 kts | 201° |
| 2026-04-30 11:10 | 24.55231 | 39.71131 | 2073 ft | 15 kts | 258° |
| 2026-04-30 11:10 | 24.55255 | 39.71034 | 2071 ft | 14 kts | 330° |
| 2026-04-30 11:10 | 24.55354 | 39.71012 | 2073 ft | 15 kts | 349° |
| 2026-04-30 11:10 | 24.55464 | 39.70989 | 2073 ft | 17 kts | 349° |
| 2026-04-30 11:11 | 24.55585 | 39.70964 | 2073 ft | 18 kts | 349° |
| 2026-04-30 11:11 | 24.55711 | 39.70938 | 2073 ft | 19 kts | 348° |
| 2026-04-30 11:11 | 24.55847 | 39.70909 | 2074 ft | 20 kts | 349° |
| 2026-04-30 11:11 | 24.55988 | 39.70879 | 2070 ft | 21 kts | 349° |
| 2026-04-30 11:12 | 24.56135 | 39.70846 | 2070 ft | 22 kts | 348° |
| 2026-04-30 11:12 | 24.56289 | 39.70812 | 2072 ft | 23 kts | 348° |
| 2026-04-30 11:12 | 24.56449 | 39.70778 | 2072 ft | 24 kts | 349° |
| 2026-04-30 11:12 | 24.56617 | 39.70743 | 2070 ft | 25 kts | 349° |
| 2026-04-30 11:13 | 24.56792 | 39.70706 | 2074 ft | 26 kts | 349° |
| 2026-04-30 11:13 | 24.56973 | 39.70667 | 2073 ft | 27 kts | 349° |
| 2026-04-30 11:13 | 24.57160 | 39.70628 | 2073 ft | 28 kts | 349° |
| 2026-04-30 11:13 | 24.57321 | 39.70593 | 2073 ft | 24 kts | 349° |
| 2026-04-30 11:14 | 24.57484 | 39.70559 | 2068 ft | 24 kts | 349° |
| 2026-04-30 11:14 | 24.57621 | 39.70529 | 2070 ft | 13 kts | 343° |
| 2026-04-30 11:14 | 24.57645 | 39.70488 | 2070 ft | 6 kts | 275° |
| 2026-04-30 11:14 | 24.57644 | 39.70443 | 2070 ft | 6 kts | 262° |
| 2026-04-30 11:15 | 24.57635 | 39.70392 | 2072 ft | 9 kts | 258° |
| 2026-04-30 11:15 | 24.57591 | 39.70349 | 2072 ft | 9 kts | 189° |
| 2026-04-30 11:15 | 24.57552 | 39.70352 | 2073 ft | 1 kts | 170° |
| 2026-04-30 11:15 | 24.57413 | 39.70380 | 2073 ft | 50 kts | 168° |
| 2026-04-30 11:16 | 24.56850 | 39.70501 | 2072 ft | 113 kts | 169° |
| 2026-04-30 11:16 | 24.55891 | 39.70705 | 2070 ft | 167 kts | 169° |
| 2026-04-30 11:16 | 24.54591 | 39.70986 | 2203 ft | 206 kts | 169° |
| 2026-04-30 11:16 | 24.53121 | 39.71305 | 2551 ft | 221 kts | 169° |
| 2026-04-30 11:17 | 24.51625 | 39.71619 | 3193 ft | 229 kts | 172° |
| 2026-04-30 11:17 | 24.49958 | 39.71961 | 3522 ft | 257 kts | 171° |
| 2026-04-30 11:17 | 24.48159 | 39.72336 | 4196 ft | 265 kts | 172° |
| 2026-04-30 11:17 | 24.46323 | 39.72734 | 5017 ft | 272 kts | 171° |
| 2026-04-30 11:18 | 24.44449 | 39.73123 | 5929 ft | 275 kts | 172° |
| 2026-04-30 11:18 | 24.40645 | 39.73901 | 7641 ft | 281 kts | 173° |
| 2026-04-30 11:18 | 24.38722 | 39.74169 | 8498 ft | 284 kts | 178° |
| 2026-04-30 11:19 | 24.36737 | 39.74253 | 9375 ft | 287 kts | 183° |
| 2026-04-30 11:19 | 24.34733 | 39.74132 | 10235 ft | 292 kts | 188° |
| 2026-04-30 11:19 | 24.32663 | 39.73790 | 10644 ft | 311 kts | 194° |
| 2026-04-30 11:19 | 24.30500 | 39.73173 | 10970 ft | 330 kts | 200° |
| 2026-04-30 11:20 | 24.28297 | 39.72252 | 11402 ft | 344 kts | 206° |
| 2026-04-30 11:20 | 24.26154 | 39.71114 | 12095 ft | 349 kts | 209° |
| 2026-04-30 11:20 | 24.23982 | 39.69895 | 12840 ft | 353 kts | 210° |
| 2026-04-30 11:20 | 24.21790 | 39.68659 | 13610 ft | 356 kts | 210° |
| 2026-04-30 11:21 | 24.19569 | 39.67411 | 14309 ft | 359 kts | 210° |
| 2026-04-30 11:21 | 24.17332 | 39.66159 | 14983 ft | 362 kts | 210° |
| 2026-04-30 11:21 | 24.15076 | 39.64899 | 15663 ft | 365 kts | 210° |
| 2026-04-30 11:21 | 24.12802 | 39.63631 | 16365 ft | 368 kts | 210° |
| 2026-04-30 11:22 | 24.10510 | 39.62354 | 17048 ft | 371 kts | 210° |
| 2026-04-30 11:22 | 24.08198 | 39.61067 | 17720 ft | 374 kts | 210° |
| 2026-04-30 11:22 | 24.05869 | 39.59771 | 18362 ft | 377 kts | 210° |
| 2026-04-30 11:22 | 24.03515 | 39.58462 | 18948 ft | 380 kts | 210° |
| 2026-04-30 11:23 | 24.01148 | 39.57147 | 19507 ft | 383 kts | 210° |
| 2026-04-30 11:23 | 23.98766 | 39.55822 | 20065 ft | 386 kts | 210° |
| 2026-04-30 11:23 | 23.93942 | 39.53145 | 21270 ft | 391 kts | 210° |
| 2026-04-30 11:24 | 23.91508 | 39.51795 | 21872 ft | 392 kts | 211° |
| 2026-04-30 11:24 | 23.89099 | 39.50458 | 22441 ft | 395 kts | 211° |
| 2026-04-30 11:24 | 23.86640 | 39.49094 | 22978 ft | 397 kts | 211° |
| 2026-04-30 11:25 | 23.81690 | 39.46351 | 23983 ft | 401 kts | 211° |
| 2026-04-30 11:25 | 23.79187 | 39.44964 | 24399 ft | 404 kts | 211° |
| 2026-04-30 11:25 | 23.74050 | 39.42352 | 25269 ft | 412 kts | 206° |
| 2026-04-30 11:26 | 23.68550 | 39.40303 | 26061 ft | 422 kts | 202° |
| 2026-04-30 11:26 | 23.65734 | 39.39357 | 26465 ft | 424 kts | 201° |
| 2026-04-30 11:26 | 23.62895 | 39.38420 | 26895 ft | 426 kts | 202° |
| 2026-04-30 11:27 | 23.60086 | 39.37484 | 27334 ft | 429 kts | 202° |
| 2026-04-30 11:27 | 23.57218 | 39.36513 | 27747 ft | 432 kts | 203° |
| 2026-04-30 11:27 | 23.54343 | 39.35532 | 28156 ft | 434 kts | 203° |
| 2026-04-30 11:27 | 23.51448 | 39.34534 | 28512 ft | 438 kts | 203° |
| 2026-04-30 11:28 | 23.45581 | 39.32507 | 29239 ft | 444 kts | 203° |
| 2026-04-30 11:28 | 23.42628 | 39.31487 | 29630 ft | 447 kts | 204° |
| 2026-04-30 11:28 | 23.39651 | 39.30461 | 29974 ft | 450 kts | 204° |
| 2026-04-30 11:29 | 23.36658 | 39.29429 | 30269 ft | 452 kts | 204° |
| 2026-04-30 11:29 | 23.33651 | 39.28393 | 30594 ft | 454 kts | 204° |
| 2026-04-30 11:29 | 23.27591 | 39.26308 | 31247 ft | 457 kts | 204° |
| 2026-04-30 11:30 | 23.21538 | 39.24226 | 31840 ft | 460 kts | 204° |
| 2026-04-30 11:30 | 23.18491 | 39.23178 | 31920 ft | 455 kts | 204° |
| 2026-04-30 11:31 | 23.12527 | 39.21141 | 31938 ft | 446 kts | 205° |
| 2026-04-30 11:31 | 23.06605 | 39.19109 | 31940 ft | 445 kts | 205° |
| 2026-04-30 11:32 | 23.00692 | 39.17078 | 31938 ft | 445 kts | 205° |
| 2026-04-30 11:32 | 22.94819 | 39.15064 | 31936 ft | 446 kts | 205° |
| 2026-04-30 11:33 | 22.85938 | 39.12025 | 31944 ft | 446 kts | 205° |
| 2026-04-30 11:33 | 22.79954 | 39.10160 | 31936 ft | 454 kts | 197° |
| 2026-04-30 11:34 | 22.73548 | 39.09788 | 31920 ft | 464 kts | 187° |
| 2026-04-30 11:34 | 22.67052 | 39.09939 | 31933 ft | 467 kts | 185° |
| 2026-04-30 11:35 | 22.60577 | 39.10213 | 31479 ft | 468 kts | 185° |
| 2026-04-30 11:35 | 22.57308 | 39.10344 | 30681 ft | 471 kts | 185° |
| 2026-04-30 11:35 | 22.54023 | 39.10467 | 30012 ft | 472 kts | 185° |
| 2026-04-30 11:36 | 22.51807 | 39.10544 | 29547 ft | 470 kts | 185° |
| 2026-04-30 11:36 | 22.48559 | 39.10615 | 28976 ft | 465 kts | 186° |
| 2026-04-30 11:36 | 22.45344 | 39.10646 | 28406 ft | 459 kts | 186° |
| 2026-04-30 11:36 | 22.42168 | 39.10657 | 27866 ft | 454 kts | 186° |
| 2026-04-30 11:37 | 22.39062 | 39.10662 | 27338 ft | 449 kts | 186° |
| 2026-04-30 11:37 | 22.35954 | 39.10667 | 26817 ft | 445 kts | 186° |
| 2026-04-30 11:37 | 22.32877 | 39.10674 | 26295 ft | 440 kts | 185° |
| 2026-04-30 11:37 | 22.29822 | 39.10684 | 25800 ft | 436 kts | 185° |
| 2026-04-30 11:38 | 22.26801 | 39.10697 | 25295 ft | 432 kts | 185° |
| 2026-04-30 11:38 | 22.23806 | 39.10710 | 24810 ft | 428 kts | 185° |
| 2026-04-30 11:38 | 22.20838 | 39.10725 | 24327 ft | 424 kts | 184° |
| 2026-04-30 11:38 | 22.17900 | 39.10740 | 23851 ft | 420 kts | 184° |
| 2026-04-30 11:39 | 22.14989 | 39.10754 | 23359 ft | 416 kts | 184° |
| 2026-04-30 11:39 | 22.12106 | 39.10774 | 22777 ft | 413 kts | 183° |
| 2026-04-30 11:39 | 22.09242 | 39.11194 | 22186 ft | 418 kts | 171° |
| 2026-04-30 11:39 | 22.06478 | 39.12012 | 21606 ft | 416 kts | 167° |
| 2026-04-30 11:40 | 22.03723 | 39.12989 | 21075 ft | 414 kts | 165° |
| 2026-04-30 11:40 | 22.01023 | 39.14042 | 20546 ft | 411 kts | 164° |
| 2026-04-30 11:40 | 21.98360 | 39.15124 | 19930 ft | 406 kts | 163° |
| 2026-04-30 11:40 | 21.95733 | 39.16201 | 19131 ft | 402 kts | 163° |
| 2026-04-30 11:41 | 21.93128 | 39.17264 | 18359 ft | 399 kts | 163° |
| 2026-04-30 11:41 | 21.90541 | 39.18309 | 17551 ft | 395 kts | 163° |
| 2026-04-30 11:41 | 21.87978 | 39.19334 | 16709 ft | 390 kts | 164° |
| 2026-04-30 11:41 | 21.85448 | 39.20340 | 15815 ft | 385 kts | 164° |
| 2026-04-30 11:42 | 21.82946 | 39.21329 | 14912 ft | 380 kts | 164° |
| 2026-04-30 11:42 | 21.80475 | 39.22302 | 14069 ft | 375 kts | 163° |
| 2026-04-30 11:42 | 21.78036 | 39.23259 | 13175 ft | 371 kts | 163° |
| 2026-04-30 11:42 | 21.75655 | 39.24192 | 12254 ft | 366 kts | 163° |
| 2026-04-30 11:43 | 21.73313 | 39.25111 | 11706 ft | 349 kts | 163° |
| 2026-04-30 11:43 | 21.71096 | 39.25987 | 11360 ft | 327 kts | 163° |
| 2026-04-30 11:43 | 21.69030 | 39.26808 | 11067 ft | 307 kts | 163° |
| 2026-04-30 11:43 | 21.67070 | 39.27585 | 10631 ft | 295 kts | 163° |
| 2026-04-30 11:44 | 21.65166 | 39.28336 | 10097 ft | 289 kts | 163° |
| 2026-04-30 11:44 | 21.63279 | 39.29078 | 9492 ft | 286 kts | 163° |
| 2026-04-30 11:44 | 21.61415 | 39.29807 | 8810 ft | 285 kts | 164° |
| 2026-04-30 11:44 | 21.59540 | 39.30533 | 8021 ft | 288 kts | 164° |
| 2026-04-30 11:45 | 21.57661 | 39.31261 | 7131 ft | 293 kts | 163° |
| 2026-04-30 11:45 | 21.55733 | 39.32026 | 6245 ft | 297 kts | 162° |
| 2026-04-30 11:45 | 21.53785 | 39.32799 | 5391 ft | 298 kts | 161° |
| 2026-04-30 11:45 | 21.51836 | 39.33562 | 4636 ft | 296 kts | 161° |
| 2026-04-30 11:46 | 21.49921 | 39.34309 | 4055 ft | 288 kts | 161° |
| 2026-04-30 11:46 | 21.48092 | 39.35019 | 3808 ft | 268 kts | 161° |
| 2026-04-30 11:46 | 21.46435 | 39.35660 | 3915 ft | 238 kts | 162° |
| 2026-04-30 11:46 | 21.44932 | 39.36250 | 4162 ft | 225 kts | 161° |
| 2026-04-30 11:47 | 21.43444 | 39.36654 | 4417 ft | 217 kts | 181° |
| 2026-04-30 11:47 | 21.42062 | 39.36268 | 4357 ft | 210 kts | 214° |
| 2026-04-30 11:47 | 21.41089 | 39.35115 | 4070 ft | 202 kts | 246° |
| 2026-04-30 11:47 | 21.40576 | 39.33732 | 4009 ft | 202 kts | 255° |
| 2026-04-30 11:48 | 21.40336 | 39.32255 | 3988 ft | 201 kts | 273° |
| 2026-04-30 11:48 | 21.40771 | 39.30881 | 4003 ft | 197 kts | 304° |
| 2026-04-30 11:48 | 21.41648 | 39.29734 | 3980 ft | 198 kts | 312° |
| 2026-04-30 11:48 | 21.42589 | 39.28652 | 3980 ft | 197 kts | 313° |
| 2026-04-30 11:49 | 21.43511 | 39.27606 | 3979 ft | 189 kts | 313° |
| 2026-04-30 11:49 | 21.44544 | 39.26768 | 3998 ft | 187 kts | 333° |
| 2026-04-30 11:49 | 21.45753 | 39.26276 | 3990 ft | 185 kts | 339° |
| 2026-04-30 11:49 | 21.46970 | 39.25812 | 3968 ft | 186 kts | 339° |
| 2026-04-30 11:50 | 21.48180 | 39.25350 | 3827 ft | 184 kts | 339° |
| 2026-04-30 11:50 | 21.49378 | 39.24882 | 3595 ft | 184 kts | 338° |
| 2026-04-30 11:50 | 21.50579 | 39.24403 | 3305 ft | 183 kts | 338° |
| 2026-04-30 11:50 | 21.51762 | 39.23935 | 3048 ft | 179 kts | 339° |
| 2026-04-30 11:51 | 21.52922 | 39.23477 | 2819 ft | 175 kts | 339° |
| 2026-04-30 11:51 | 21.54040 | 39.23035 | 2602 ft | 165 kts | 339° |
| 2026-04-30 11:51 | 21.55082 | 39.22623 | 2403 ft | 154 kts | 340° |
| 2026-04-30 11:51 | 21.56084 | 39.22228 | 2203 ft | 153 kts | 339° |
| 2026-04-30 11:52 | 21.57076 | 39.21836 | 2007 ft | 151 kts | 337° |
| 2026-04-30 11:52 | 21.58063 | 39.21445 | 1811 ft | 154 kts | 337° |
| 2026-04-30 11:52 | 21.59084 | 39.21042 | 1610 ft | 154 kts | 338° |
| 2026-04-30 11:52 | 21.60036 | 39.20667 | 1404 ft | 142 kts | 338° |
| 2026-04-30 11:53 | 21.60929 | 39.20314 | 1233 ft | 131 kts | 336° |
| 2026-04-30 11:53 | 21.61778 | 39.19977 | 1069 ft | 131 kts | 336° |
| 2026-04-30 11:53 | 21.62636 | 39.19638 | 920 ft | 129 kts | 335° |
| 2026-04-30 11:53 | 21.63475 | 39.19305 | 758 ft | 128 kts | 336° |
| 2026-04-30 11:54 | 21.64306 | 39.18977 | 596 ft | 126 kts | 336° |
| 2026-04-30 11:54 | 21.65118 | 39.18656 | 422 ft | 123 kts | 334° |
| 2026-04-30 11:54 | 21.65907 | 39.18342 | 223 ft | 119 kts | 334° |
| 2026-04-30 11:54 | 21.66683 | 39.18037 | 84 ft | 121 kts | 335° |
| 2026-04-30 11:55 | 21.67416 | 39.17748 | 33 ft | 100 kts | 339° |
| 2026-04-30 11:55 | 21.67880 | 39.17561 | 38 ft | 34 kts | 339° |
| 2026-04-30 11:55 | 21.68106 | 39.17472 | 33 ft | 36 kts | 340° |
| 2026-04-30 11:55 | 21.68313 | 39.17336 | 30 ft | 35 kts | 314° |
| 2026-04-30 11:56 | 21.68389 | 39.17241 | 29 ft | 4 kts | 309° |
| 2026-04-30 11:56 | 21.68409 | 39.17214 | 29 ft | 5 kts | 309° |
| 2026-04-30 11:56 | 21.68430 | 39.17186 | 30 ft | 2 kts | 309° |
| 2026-04-30 11:56 | 21.68441 | 39.17172 | 30 ft | 3 kts | 309° |
| 2026-04-30 11:57 | 21.68456 | 39.17151 | 31 ft | 4 kts | 309° |
| 2026-04-30 11:57 | 21.68470 | 39.17123 | 31 ft | 4 kts | 280° |
| 2026-04-30 11:57 | 21.68476 | 39.17095 | 31 ft | 0 kts | 287° |
| 2026-04-30 11:58 | 21.68481 | 39.17077 | 31 ft | 7 kts | 288° |
| 2026-04-30 11:58 | 21.68465 | 39.17014 | 32 ft | 11 kts | 206° |
| 2026-04-30 11:58 | 21.68359 | 39.17037 | 34 ft | 20 kts | 159° |
| 2026-04-30 11:58 | 21.68217 | 39.17094 | 33 ft | 23 kts | 160° |
| 2026-04-30 11:59 | 21.68057 | 39.17156 | 34 ft | 26 kts | 160° |
| 2026-04-30 11:59 | 21.67936 | 39.17205 | 34 ft | 14 kts | 159° |
| 2026-04-30 11:59 | 21.67836 | 39.17244 | 34 ft | 17 kts | 160° |
| 2026-04-30 11:59 | 21.67712 | 39.17293 | 34 ft | 21 kts | 160° |
| 2026-04-30 12:00 | 21.67569 | 39.17349 | 34 ft | 24 kts | 159° |
| 2026-04-30 12:00 | 21.67413 | 39.17411 | 34 ft | 22 kts | 160° |
| 2026-04-30 12:00 | 21.67295 | 39.17458 | 34 ft | 16 kts | 160° |
| 2026-04-30 12:00 | 21.67179 | 39.17502 | 34 ft | 19 kts | 160° |
| 2026-04-30 12:01 | 21.67048 | 39.17554 | 34 ft | 19 kts | 159° |
| 2026-04-30 12:01 | 21.66954 | 39.17544 | 34 ft | 10 kts | 230° |
| 2026-04-30 12:01 | 21.66931 | 39.17488 | 34 ft | 9 kts | 250° |
| 2026-04-30 12:01 | 21.66907 | 39.17416 | 34 ft | 11 kts | 250° |
| 2026-04-30 12:02 | 21.66877 | 39.17330 | 34 ft | 12 kts | 242° |
| 2026-04-30 12:02 | 21.66807 | 39.17298 | 34 ft | 12 kts | 176° |
| 2026-04-30 12:02 | 21.66729 | 39.17316 | 34 ft | 7 kts | 186° |
| 2026-04-30 12:02 | 21.66724 | 39.17313 | 34 ft | 1 kts | 201° |
| 2026-04-30 12:03 | 21.66712 | 39.17302 | 34 ft | 4 kts | 225° |
| 2026-04-30 12:03 | 21.66687 | 39.17244 | 34 ft | 0 kts | 249° |
| 2026-04-30 12:03 | 21.66686 | 39.17241 | 34 ft | 0 kts | 249° |
| 2026-04-30 12:04 | 21.66683 | 39.17233 | 34 ft | 0 kts | 249° |